Huvudsida
METAR-TAF:

METAR-TAF

Flygplatser :

Mariehamn, Finland

Mariehamns flygplats

latitud: 60-07N, longitud: 019-54E, höjd: 6 m

Aktuellt väderrapport

Denna rapport gjordes för 34 minuter sedan, klockan 02:50 UTC
Stilla vind
Temperatur -5°C
Fuktighet 93%
Tryck 999 hPa
Sikt 10 km eller mer
Mulet på en höjd av 3200 ft

METAR: EFMA 190250Z AUTO 00000KT 9999 OVC032 M05/M06 Q0999

Tid: 05:24 (03:24 UTC)

Väderprognos

Denna rapport gjordes för 54 minuter sedan, klockan 02:30 UTC
Prognos gäller från 19 kl. 03 UTC till 19 kl. 12 UTC
Vind 3 kt från nord/nordost
Sikt 10 km eller mer
Brutna moln på en höjd av 3000 ft

TAF: EFMA 190230Z 1903/1912 02003KT 9999 BKN030

Aktuella väderrapporter och prognoser från 4000 flygplatser (METAR- och TAF-rapporter).

De tillgängliga stationerna syns som gula och röda prickar på kartan.

För musen över prickarna för att se namnen på stationerna.

Klicka sedan för att få väderrapporter och prognoser.

För att ändra kartan: Klicka på de gröna knapparna med ett svart kors på för att zooma in; den gröna knappen med ett streck på för att zooma ut; eller på de gröna pilarna för angränsande kartor.


METAR-TAF: